Time;durP1;ratioP1;P1;durP2;ratioP2;P2;SDS_P1;SDS_P2;PMS_P1;PMS_P2;Temp;Humidity;BMP_temperature;BMP_pressure;BME280_temperature;BME280_humidity;BME280_pressure;Samples;Min_cycle;Max_cycle;Signal;HPM_P1;HPM_P2
2021/12/07 15:16:21;;;;;;;3.67;2.70;;;23.80;26.90;;;;;;4891919;27;1186470;-51
2021/12/07 15:18:50;;;;;;;10.33;2.53;;;23.70;27.60;;;;;;5033628;27;37924;-51
2021/12/07 15:21:20;;;;;;;6.47;3.00;;;23.70;27.40;;;;;;5086169;28;37014;-50
2021/12/07 15:23:48;;;;;;;6.27;2.80;;;23.70;27.60;;;;;;5085978;28;40573;-51
2021/12/07 15:26:16;;;;;;;5.70;2.90;;;23.70;27.60;;;;;;5101531;28;39261;-51
2021/12/07 15:28:54;;;;;;;5.00;2.83;;;23.60;27.90;;;;;;5101423;28;38634;-51
2021/12/07 15:31:23;;;;;;;5.43;2.60;;;23.60;28.10;;;;;;5104135;28;37116;-52
2021/12/07 15:33:52;;;;;;;8.47;2.87;;;23.50;28.30;;;;;;5101412;27;41703;-51
2021/12/07 15:36:20;;;;;;;5.70;3.63;;;23.60;28.80;;;;;;5101195;27;39551;-51
2021/12/07 15:38:48;;;;;;;5.30;2.60;;;23.50;29.10;;;;;;5102400;28;38054;-51
2021/12/07 15:41:15;;;;;;;3.90;2.67;;;23.50;29.50;;;;;;5101153;28;36937;-51
2021/12/07 15:43:43;;;;;;;4.70;2.50;;;23.50;29.50;;;;;;5035422;27;49874;-51
2021/12/07 15:46:16;;;;;;;3.70;2.27;;;23.50;29.70;;;;;;5101566;28;39727;-50
2021/12/07 15:48:45;;;;;;;9.20;2.97;;;23.50;29.90;;;;;;5102198;27;37378;-51
2021/12/07 15:51:13;;;;;;;6.90;3.00;;;23.40;29.90;;;;;;5102357;28;35364;-51
2021/12/07 15:53:40;;;;;;;3.60;2.60;;;23.40;30.20;;;;;;5103686;28;40496;-51
2021/12/07 15:56:16;;;;;;;4.40;2.70;;;23.40;30.50;;;;;;5104260;28;39597;-51
2021/12/07 15:58:45;;;;;;;5.73;2.57;;;23.40;30.90;;;;;;5104757;28;37994;-51
2021/12/07 16:01:13;;;;;;;5.37;2.63;;;23.40;31.10;;;;;;5105223;28;38007;-51
2021/12/07 16:03:43;;;;;;;3.67;2.50;;;23.30;31.20;;;;;;5097414;27;41438;-51
2021/12/07 16:06:19;;;;;;;3.87;2.83;;;23.30;31.40;;;;;;5103335;28;39664;-51
2021/12/07 16:08:46;;;;;;;4.77;2.50;;;23.30;31.60;;;;;;5100650;27;37497;-51
2021/12/07 16:11:15;;;;;;;4.20;2.60;;;23.30;31.60;;;;;;5104319;28;37261;-51
2021/12/07 16:13:45;;;;;;;3.53;2.70;;;23.40;31.90;;;;;;5099225;27;40215;-51
2021/12/07 16:16:18;;;;;;;5.00;2.93;;;23.40;31.70;;;;;;5107385;28;39098;-51
2021/12/07 16:18:46;;;;;;;6.13;2.73;;;23.50;31.50;;;;;;5102968;27;37977;-51
2021/12/07 16:21:14;;;;;;;5.17;2.67;;;23.50;31.40;;;;;;5110615;27;38123;-51
2021/12/07 16:23:46;;;;;;;6.47;4.37;;;23.50;30.70;;;;;;5107711;28;41592;-52
2021/12/07 16:26:15;;;;;;;6.23;3.93;;;23.40;25.60;;;;;;5101564;28;40563;-51
2021/12/07 16:28:45;;;;;;;4.37;2.70;;;23.30;26.10;;;;;;5094982;28;37196;-51
2021/12/07 16:31:15;;;;;;;5.13;2.90;;;23.30;29.90;;;;;;4978055;27;37131;-51
2021/12/07 16:33:43;;;;;;;7.50;3.57;;;23.20;30.20;;;;;;5091530;28;41362;-51
2021/12/07 16:36:12;;;;;;;5.00;3.30;;;23.20;29.90;;;;;;5093180;28;39556;-51
2021/12/07 16:38:42;;;;;;;9.43;3.50;;;23.20;29.90;;;;;;5095961;28;37723;-54
2021/12/07 16:41:11;;;;;;;11.13;5.73;;;23.20;30.10;;;;;;5089662;28;37004;-50
2021/12/07 16:43:39;;;;;;;8.43;4.17;;;22.70;22.60;;;;;;5092381;28;41559;-51
2021/12/07 16:46:08;;;;;;;16.80;5.20;;;22.10;26.70;;;;;;5091167;28;39761;-51
2021/12/07 16:48:36;;;;;;;6.80;3.50;;;22.10;29.70;;;;;;5088790;28;37423;-51
2021/12/07 16:51:04;;;;;;;8.20;3.73;;;22.10;30.70;;;;;;5092821;28;36738;-51
2021/12/07 16:53:32;;;;;;;4.57;2.90;;;22.30;30.40;;;;;;5091910;28;40424;-52
2021/12/07 16:56:01;;;;;;;5.10;3.50;;;22.40;30.10;;;;;;5019675;28;41152;-51
2021/12/07 16:58:29;;;;;;;10.27;3.67;;;22.70;30.20;;;;;;5102734;27;37085;-51
2021/12/07 17:00:56;;;;;;;4.40;2.70;;;22.80;29.90;;;;;;5058277;27;36964;-51
2021/12/07 17:03:24;;;;;;;4.43;2.97;;;22.90;29.80;;;;;;5115561;27;40380;-51
2021/12/07 17:05:53;;;;;;;5.00;3.30;;;23.00;29.80;;;;;;5108748;27;39715;-51
2021/12/07 17:08:21;;;;;;;5.73;3.00;;;23.10;29.70;;;;;;5104677;28;38597;-51
2021/12/07 17:10:50;;;;;;;4.67;3.07;;;23.20;29.80;;;;;;5106124;28;36936;-52
2021/12/07 17:13:19;;;;;;;7.43;3.40;;;23.30;30.20;;;;;;5106524;28;40428;-51
2021/12/07 17:15:47;;;;;;;5.87;3.67;;;23.30;29.70;;;;;;5109869;28;39612;-51
2021/12/07 17:18:16;;;;;;;5.43;3.23;;;23.30;29.50;;;;;;5106542;28;36982;-52
2021/12/07 17:20:44;;;;;;;20.93;14.23;;;23.30;29.60;;;;;;5106696;27;36958;-50
2021/12/07 17:23:12;;;;;;;8.07;5.30;;;22.90;23.50;;;;;;5111108;28;40455;-51
2021/12/07 17:25:40;;;;;;;5.87;3.40;;;22.30;25.10;;;;;;5112061;28;39620;-51
2021/12/07 17:28:07;;;;;;;8.20;4.23;;;22.20;28.60;;;;;;5105428;28;37414;-51
2021/12/07 17:30:36;;;;;;;6.90;3.77;;;22.30;30.40;;;;;;5113136;28;36900;-51
2021/12/07 17:33:04;;;;;;;9.33;4.20;;;22.30;29.60;;;;;;5093111;28;40326;-51
2021/12/07 17:35:32;;;;;;;13.23;4.13;;;22.40;29.30;;;;;;5104358;27;40386;-52
2021/12/07 17:37:59;;;;;;;4.30;3.37;;;22.60;29.90;;;;;;5111990;27;36920;-51
2021/12/07 17:40:29;;;;;;;22.37;9.60;;;22.60;29.30;;;;;;5111883;28;37934;-52
2021/12/07 17:42:58;;;;;;;30.53;11.73;;;22.70;30.30;;;;;;5122867;27;41595;-51
2021/12/07 17:45:27;;;;;;;37.23;13.33;;;22.80;30.70;;;;;;5112938;28;40416;-54
2021/12/07 17:47:56;;;;;;;26.10;10.80;;;22.90;30.80;;;;;;5112545;28;37619;-51
2021/12/07 17:50:25;;;;;;;35.50;12.00;;;22.90;30.90;;;;;;5131830;27;38760;-52
2021/12/07 17:52:52;;;;;;;30.93;12.27;;;23.00;30.70;;;;;;5112434;27;40452;-51
2021/12/07 17:55:23;;;;;;;59.10;28.33;;;23.00;30.70;;;;;;5112377;28;40416;-51
2021/12/07 17:57:51;;;;;;;71.60;27.33;;;23.00;31.70;;;;;;5112573;28;38667;-51
2021/12/07 18:00:22;;;;;;;60.43;22.60;;;23.10;32.60;;;;;;5112967;28;37929;-53
2021/12/07 18:02:49;;;;;;;54.30;25.40;;;23.10;32.70;;;;;;5112483;27;42771;-51
2021/12/07 18:05:18;;;;;;;53.23;32.53;;;23.20;32.90;;;;;;5132574;27;40591;-49
2021/12/07 18:07:46;;;;;;;52.77;24.33;;;23.20;33.40;;;;;;5132774;27;38772;-50
2021/12/07 18:10:16;;;;;;;92.17;83.73;;;23.30;33.80;;;;;;5130452;27;37251;-50
2021/12/07 18:12:45;;;;;;;54.70;36.70;;;23.30;33.90;;;;;;5112490;28;40006;-51
2021/12/07 18:15:14;;;;;;;58.90;51.10;;;23.40;34.10;;;;;;5109456;28;39566;-51
2021/12/07 18:17:43;;;;;;;68.23;61.40;;;23.40;34.00;;;;;;5121324;27;38687;-51
2021/12/07 18:20:13;;;;;;;64.20;57.50;;;23.50;34.00;;;;;;5117698;27;37482;-51
2021/12/07 18:22:42;;;;;;;68.30;58.90;;;23.50;34.00;;;;;;5112008;28;40500;-51
2021/12/07 18:25:11;;;;;;;65.90;59.23;;;23.50;34.00;;;;;;5108708;28;39705;-51
2021/12/07 18:27:39;;;;;;;67.27;59.97;;;23.50;34.00;;;;;;5109203;28;37539;-50
2021/12/07 18:30:10;;;;;;;66.97;58.87;;;23.50;34.00;;;;;;5112333;28;37130;-50
2021/12/07 18:32:37;;;;;;;72.20;60.03;;;23.50;34.00;;;;;;5123006;27;41167;-51
2021/12/07 18:35:06;;;;;;;62.80;56.10;;;23.60;34.10;;;;;;5132173;27;40706;-51
2021/12/07 18:37:33;;;;;;;63.13;56.70;;;23.60;34.10;;;;;;5132643;27;38441;-51
2021/12/07 18:40:02;;;;;;;62.97;55.47;;;23.60;34.10;;;;;;5133115;27;37897;-51
2021/12/07 18:42:29;;;;;;;66.03;55.23;;;23.60;34.10;;;;;;5132620;27;40299;-51
2021/12/07 18:44:56;;;;;;;58.03;51.03;;;23.60;34.10;;;;;;5132315;27;39686;-51
2021/12/07 18:47:23;;;;;;;56.33;50.47;;;23.60;34.10;;;;;;5112426;27;37650;-51
2021/12/07 18:49:50;;;;;;;57.23;51.43;;;23.60;34.70;;;;;;5110493;27;38286;-51
2021/12/07 18:52:18;;;;;;;61.90;53.83;;;23.60;34.90;;;;;;5111187;28;41408;-50
2021/12/07 18:54:47;;;;;;;35.93;27.77;;;23.70;35.80;;;;;;5111577;28;40226;-49
2021/12/07 18:57:16;;;;;;;37.93;28.70;;;23.00;24.30;;;;;;5111261;28;37531;-49
2021/12/07 18:59:43;;;;;;;37.10;27.30;;;21.80;22.60;;;;;;5111476;28;37118;-50
2021/12/07 19:02:11;;;;;;;35.90;28.70;;;21.10;26.40;;;;;;5111404;27;40483;-50
2021/12/07 19:04:38;;;;;;;32.23;26.63;;;21.10;31.80;;;;;;5110871;28;40620;-51
2021/12/07 19:07:06;;;;;;;27.13;23.73;;;21.20;34.20;;;;;;5107995;28;38279;-51
2021/12/07 19:09:33;;;;;;;25.83;23.10;;;21.50;34.50;;;;;;5106198;28;38227;-51
2021/12/07 19:12:02;;;;;;;29.77;24.43;;;21.70;34.20;;;;;;5098390;28;40492;-50
2021/12/07 19:14:31;;;;;;;26.27;21.73;;;21.90;34.80;;;;;;5110101;28;40428;-51
2021/12/07 19:16:58;;;;;;;30.13;23.00;;;22.20;33.60;;;;;;5108436;27;37631;-51
2021/12/07 19:19:25;;;;;;;25.37;22.67;;;22.30;33.70;;;;;;5107736;27;38170;-51
2021/12/07 19:21:53;;;;;;;25.90;22.90;;;22.50;33.60;;;;;;5109862;28;40628;-51
2021/12/07 19:24:21;;;;;;;25.23;20.80;;;22.60;33.60;;;;;;5111454;28;40327;-51
2021/12/07 19:26:48;;;;;;;27.20;21.47;;;22.70;33.30;;;;;;5110148;28;37427;-51
2021/12/07 19:29:15;;;;;;;24.63;20.00;;;22.80;33.50;;;;;;5110671;28;36928;-51
2021/12/07 19:31:43;;;;;;;24.50;20.67;;;22.90;33.50;;;;;;5110545;27;40401;-50
2021/12/07 19:34:11;;;;;;;29.33;21.30;;;23.00;33.50;;;;;;5090446;28;39665;-51
2021/12/07 19:36:38;;;;;;;22.47;20.20;;;23.00;33.50;;;;;;5106894;28;37548;-51
2021/12/07 19:39:06;;;;;;;21.70;19.40;;;23.10;33.50;;;;;;5108580;28;38238;-51
2021/12/07 19:41:33;;;;;;;22.30;18.53;;;23.10;33.40;;;;;;5111211;28;40268;-51
2021/12/07 19:44:01;;;;;;;20.83;18.63;;;23.20;33.60;;;;;;5110512;28;39598;-51
2021/12/07 19:46:28;;;;;;;20.93;18.60;;;23.20;34.20;;;;;;5128237;27;39105;-51
2021/12/07 19:48:56;;;;;;;23.13;19.83;;;23.20;33.40;;;;;;5131174;27;36902;-50
2021/12/07 19:51:27;;;;;;;21.70;18.00;;;23.20;33.60;;;;;;5131120;27;40443;-51
2021/12/07 19:53:58;;;;;;;19.57;17.60;;;23.30;33.60;;;;;;5131234;27;39717;-51
2021/12/07 19:56:29;;;;;;;20.40;17.40;;;23.30;33.60;;;;;;5115982;27;38662;-51
2021/12/07 19:58:57;;;;;;;21.20;18.43;;;23.30;33.70;;;;;;5116946;27;37164;-51
2021/12/07 20:01:26;;;;;;;22.87;18.17;;;23.30;33.70;;;;;;5127598;27;41638;-51
2021/12/07 20:03:54;;;;;;;23.27;18.77;;;23.30;33.80;;;;;;5113824;28;40686;-51
2021/12/07 20:06:27;;;;;;;19.90;17.03;;;23.30;33.90;;;;;;5113338;28;37549;-51
2021/12/07 20:08:56;;;;;;;19.07;15.90;;;23.30;33.80;;;;;;5126187;27;37174;-51
2021/12/07 20:11:25;;;;;;;18.17;15.27;;;23.30;33.80;;;;;;5104090;27;42079;-51
2021/12/07 20:13:52;;;;;;;21.17;15.60;;;23.30;33.80;;;;;;5082546;28;41372;-51
2021/12/07 20:16:20;;;;;;;18.17;16.10;;;23.30;33.80;;;;;;5113114;28;38570;-51
2021/12/07 20:18:47;;;;;;;18.77;15.80;;;23.40;33.90;;;;;;5113410;28;37186;-51
2021/12/07 20:21:18;;;;;;;14.70;13.30;;;23.20;27.00;;;;;;5112379;28;39534;-50
2021/12/07 20:23:49;;;;;;;18.40;14.97;;;22.70;25.10;;;;;;5113050;27;40485;-50
2021/12/07 20:26:18;;;;;;;15.57;13.90;;;22.30;27.70;;;;;;5113246;28;37684;-50
2021/12/07 20:28:47;;;;;;;15.63;12.87;;;22.20;32.80;;;;;;5113780;28;37017;-51
2021/12/07 20:31:17;;;;;;;15.73;13.50;;;22.20;33.60;;;;;;5113788;28;40284;-51
2021/12/07 20:33:44;;;;;;;15.13;12.50;;;22.30;33.80;;;;;;5114451;27;39720;-51
2021/12/07 20:36:12;;;;;;;14.40;12.30;;;22.40;33.10;;;;;;5113577;28;38464;-50
2021/12/07 20:38:40;;;;;;;14.40;13.00;;;22.50;33.10;;;;;;5113636;28;36879;-51
2021/12/07 20:41:09;;;;;;;15.63;12.07;;;22.70;32.90;;;;;;5113730;28;40507;-51
2021/12/07 20:43:37;;;;;;;15.00;12.53;;;22.70;32.90;;;;;;5113761;28;40707;-51
2021/12/07 20:46:07;;;;;;;14.50;12.37;;;22.80;32.80;;;;;;5119659;27;37629;-51
2021/12/07 20:48:34;;;;;;;15.00;11.73;;;22.90;33.00;;;;;;5134425;27;37321;-51
2021/12/07 20:51:01;;;;;;;14.37;12.00;;;23.00;32.70;;;;;;5133730;27;41520;-51
2021/12/07 20:53:29;;;;;;;12.33;11.00;;;23.00;32.50;;;;;;5134299;27;40690;-51
2021/12/07 20:55:57;;;;;;;15.63;10.80;;;23.10;32.60;;;;;;5134071;27;38521;-50
2021/12/07 20:58:26;;;;;;;13.50;11.50;;;23.10;33.30;;;;;;5134203;27;38119;-51
2021/12/07 21:00:53;;;;;;;13.50;11.13;;;23.10;32.70;;;;;;5118636;27;40423;-51
2021/12/07 21:03:21;;;;;;;11.40;10.00;;;23.20;32.70;;;;;;5112584;28;39285;-51
2021/12/07 21:05:48;;;;;;;12.93;11.63;;;23.20;32.70;;;;;;5113088;28;37657;-51
2021/12/07 21:08:15;;;;;;;13.70;10.77;;;23.20;32.90;;;;;;5113058;28;37263;-51
2021/12/07 21:10:43;;;;;;;12.10;10.27;;;23.20;32.60;;;;;;5113369;28;42093;-52
2021/12/07 21:13:10;;;;;;;12.60;10.60;;;23.20;32.80;;;;;;5113167;27;39519;-50
2021/12/07 21:15:38;;;;;;;10.70;9.67;;;23.30;32.90;;;;;;5127109;27;37342;-51
2021/12/07 21:18:05;;;;;;;11.73;10.60;;;23.30;33.00;;;;;;5132617;27;38210;-51
2021/12/07 21:20:33;;;;;;;12.33;10.10;;;23.30;32.90;;;;;;5133351;27;41763;-51
2021/12/07 21:23:01;;;;;;;12.30;9.80;;;23.30;33.00;;;;;;5133689;27;39198;-51
2021/12/07 21:25:29;;;;;;;10.30;9.23;;;23.30;33.00;;;;;;5133357;27;37477;-51
2021/12/07 21:27:56;;;;;;;9.70;8.80;;;23.30;32.90;;;;;;5131371;27;36940;-51
2021/12/07 21:30:23;;;;;;;10.00;8.60;;;23.30;33.00;;;;;;5112273;28;40438;-51
2021/12/07 21:32:52;;;;;;;10.10;9.10;;;23.40;33.10;;;;;;5113017;28;39880;-51
2021/12/07 21:35:19;;;;;;;12.00;9.20;;;23.30;33.10;;;;;;5112127;28;37824;-51
2021/12/07 21:37:46;;;;;;;19.70;9.77;;;23.40;33.20;;;;;;5112845;28;36903;-51
2021/12/07 21:40:16;;;;;;;10.30;8.20;;;23.40;33.50;;;;;;5111836;28;40862;-51
2021/12/07 21:42:43;;;;;;;13.20;9.00;;;23.40;33.40;;;;;;5011109;27;40658;-54
2021/12/07 21:45:12;;;;;;;9.70;8.20;;;23.40;33.30;;;;;;5090280;28;37434;-51
2021/12/07 21:47:41;;;;;;;10.00;8.90;;;23.40;33.50;;;;;;5092495;28;36760;-50
2021/12/07 21:50:13;;;;;;;10.93;9.37;;;23.50;33.60;;;;;;5092500;28;40351;-51
2021/12/07 21:52:40;;;;;;;8.70;7.77;;;23.40;33.40;;;;;;5092270;28;39503;-51
2021/12/07 21:55:10;;;;;;;8.97;7.73;;;23.40;33.20;;;;;;5099001;28;38481;-50
2021/12/07 21:57:38;;;;;;;8.70;7.27;;;23.40;32.60;;;;;;5111654;27;38008;-51
2021/12/07 22:00:07;;;;;;;11.03;7.53;;;23.40;32.50;;;;;;5111160;27;41580;-50
2021/12/07 22:02:35;;;;;;;7.67;6.97;;;23.30;32.30;;;;;;5128245;27;40440;-51
2021/12/07 22:05:03;;;;;;;8.80;7.17;;;23.30;32.40;;;;;;5127157;27;37856;-51
2021/12/07 22:07:32;;;;;;;10.37;7.47;;;23.30;32.20;;;;;;5112287;27;37071;-50
2021/12/07 22:10:02;;;;;;;9.83;7.13;;;23.20;32.00;;;;;;5132953;27;40466;-50
2021/12/07 22:12:30;;;;;;;8.67;7.47;;;23.20;32.20;;;;;;5116726;27;39237;-50
2021/12/07 22:14:57;;;;;;;8.90;7.73;;;23.20;32.30;;;;;;5111869;28;37274;-51
2021/12/07 22:17:24;;;;;;;37.20;7.40;;;23.20;32.40;;;;;;5112367;27;37943;-50
2021/12/07 22:19:51;;;;;;;8.87;6.63;;;23.20;32.20;;;;;;5122121;27;41450;-50
2021/12/07 22:22:18;;;;;;;6.40;5.80;;;23.20;32.20;;;;;;5112686;28;39751;-50
2021/12/07 22:24:47;;;;;;;11.87;7.10;;;23.20;32.30;;;;;;5111755;27;37434;-51
2021/12/07 22:27:14;;;;;;;14.47;6.70;;;23.20;32.40;;;;;;5113244;27;37978;-50
2021/12/07 22:29:42;;;;;;;7.00;6.27;;;23.20;32.40;;;;;;5111939;27;40504;-50
2021/12/07 22:32:11;;;;;;;7.70;6.27;;;23.20;32.40;;;;;;5112321;28;39498;-50
2021/12/07 22:34:38;;;;;;;9.50;6.47;;;23.20;32.30;;;;;;5111792;28;38497;-50
2021/12/07 22:37:07;;;;;;;6.03;5.40;;;23.20;32.30;;;;;;5110712;28;37917;-50
2021/12/07 22:39:35;;;;;;;8.43;6.10;;;23.20;32.40;;;;;;5112020;27;40512;-50
2021/12/07 22:42:04;;;;;;;6.83;6.13;;;23.20;32.40;;;;;;5132461;27;39639;-51
2021/12/07 22:44:31;;;;;;;9.97;7.23;;;23.20;32.50;;;;;;5131970;27;37363;-50
2021/12/07 22:46:59;;;;;;;8.60;5.60;;;23.20;32.50;;;;;;5132646;27;37065;-50
2021/12/07 22:49:26;;;;;;;8.80;6.40;;;23.20;32.60;;;;;;5132674;27;40364;-50
2021/12/07 22:51:54;;;;;;;6.67;5.70;;;23.20;32.50;;;;;;5131803;27;39938;-50
2021/12/07 22:54:23;;;;;;;7.03;5.50;;;23.20;32.50;;;;;;5131592;27;37453;-51
2021/12/07 22:56:50;;;;;;;8.90;5.80;;;23.20;32.40;;;;;;5091444;28;38058;-50
2021/12/07 22:59:20;;;;;;;6.87;5.47;;;23.20;32.60;;;;;;5091519;28;41633;-50
2021/12/07 23:01:48;;;;;;;7.27;5.57;;;23.20;32.60;;;;;;5112412;27;39637;-51
2021/12/07 23:04:15;;;;;;;9.40;6.00;;;23.20;32.60;;;;;;5116896;27;37944;-50
2021/12/07 23:06:43;;;;;;;5.57;5.07;;;23.20;32.50;;;;;;5111932;28;37927;-50
2021/12/07 23:09:11;;;;;;;7.13;5.60;;;23.20;32.60;;;;;;5110848;28;41110;-50
2021/12/07 23:11:40;;;;;;;6.90;5.73;;;23.20;32.60;;;;;;5111742;28;39638;-49
2021/12/07 23:14:09;;;;;;;8.93;5.77;;;23.20;32.70;;;;;;5111771;28;37372;-50
2021/12/07 23:16:38;;;;;;;5.60;5.10;;;23.20;32.70;;;;;;5130177;27;37026;-50
2021/12/07 23:19:06;;;;;;;6.20;5.60;;;23.20;32.80;;;;;;5131827;27;40586;-50
2021/12/07 23:21:33;;;;;;;6.60;5.37;;;23.20;32.80;;;;;;5132140;27;39649;-50
2021/12/07 23:24:09;;;;;;;5.97;5.33;;;23.20;32.70;;;;;;5125892;27;36973;-49
2021/12/07 23:26:37;;;;;;;5.80;4.70;;;23.20;32.80;;;;;;5111329;28;36916;-50
2021/12/07 23:29:04;;;;;;;7.13;5.83;;;23.20;32.70;;;;;;5111245;28;40216;-50
2021/12/07 23:31:31;;;;;;;5.60;5.03;;;23.20;32.80;;;;;;5130741;27;40465;-50
2021/12/07 23:34:02;;;;;;;6.33;5.53;;;23.20;32.80;;;;;;5131966;27;37529;-50
2021/12/07 23:36:30;;;;;;;6.50;5.47;;;23.20;32.90;;;;;;5131898;27;37304;-50
2021/12/07 23:38:58;;;;;;;5.27;4.77;;;23.20;33.00;;;;;;5135249;27;40207;-49
2021/12/07 23:41:26;;;;;;;5.90;5.27;;;23.20;33.00;;;;;;5130322;27;40557;-50
2021/12/07 23:43:55;;;;;;;6.50;5.10;;;23.20;33.10;;;;;;5114025;27;37430;-50
2021/12/07 23:46:23;;;;;;;5.37;4.87;;;23.20;33.10;;;;;;5114759;27;36938;-50
2021/12/07 23:48:51;;;;;;;5.87;4.87;;;23.20;33.00;;;;;;5114582;27;40523;-50
2021/12/07 23:51:22;;;;;;;5.00;4.50;;;23.20;33.10;;;;;;5114592;28;40095;-50
2021/12/07 23:53:49;;;;;;;5.73;4.80;;;23.20;33.00;;;;;;5114513;28;37418;-50
2021/12/07 23:56:16;;;;;;;6.10;4.67;;;23.20;33.10;;;;;;5115012;28;37867;-50
2021/12/07 23:58:44;;;;;;;6.23;4.27;;;23.20;33.00;;;;;;5131656;27;40523;-50
